Historyczne dane pomiarowe

Dodano dane terminowe – wersja testowa.

Dane z okresu 1951-2019

Wersja bazy: 1.34 [2019-03-16, lista zmian], aktualizacja planowana na 2019-04-15

Dane meteo z obszaru Polski uzyskane na podstawie danych udostępnionych przez Instytut Meteorologii i Gospodarki Wodnej – Państwowy Instytut Badawczy.

 

Wybierz Datę:    

       

TemperaturaWilgotnośćWiatrCiśnienieOpadyŚniegCzas trwania zjawisk
 Stacja t tx tn tng RH VA  wxwx mslp ppp RRR   cm mm wxwxwxwxwxwxwx
1977-10-10 13.1 22.1 5.4- 70.0- 1.3 2.0---- 0.0------------
1977-10-09 13.4 24.5 5.2- 75.3- 0.0 1.0---- 0.0------------
1977-10-08 14.2 23.2 6.8- 81.5- 0.0 2.0---- 0.0------------
1977-10-07 12.3 22.2 5.8- 82.5- 0.0 1.0---- 0.0------------
1977-10-06 11.3 19.5 4.4- 79.8- 0.7 3.3---- 0.0------------
1977-10-05 10.1 19.0 2.9- 79.0- 3.3 1.7---- 0.0------------
1977-10-04 7.4 12.1 4.7- 87.0- 4.7 1.3---- 0.0------------
1977-10-03 2.9 9.1 -0.6- 94.0- 6.7 2.3---- 3.5------------
1977-10-02 5.9 12.9 3.3- 81.0- 3.7 2.0---- 0.0------------
1977-10-01 9.9 18.2 3.3- 70.5- 6.0 0.7---- 0.6------------
1977-09-30 9.5 15.9 6.3- 72.5- 6.0 2.3---- 0.0------------
1977-09-29 5.1 14.9 -2.3- 71.3- 3.3 1.7---- 0.0------------
1977-09-28 0.9 12.6 -4.6- 80.0- 0.0 0.3---- 0.0------------
1977-09-27 1.6 8.5 -1.6- 83.5- 2.3 1.7---- 0.0------------
1977-09-26 3.3 10.2 -0.3- 79.8- 4.0 2.3---- 0.0------------
1977-09-25 3.5 10.1 -1.4- 83.8- 4.0 2.3---- 0.0------------
1977-09-24 7.4 10.6 6.5- 80.5- 5.3 1.0---- 0.0------------
1977-09-23 8.0 10.6 7.0- 90.8- 8.0 0.0---- 3.9------------
1977-09-22 7.5 9.4 7.0- 86.5- 8.0 0.7---- 6.9------------
1977-09-21 9.0 11.9 7.7- 91.3- 7.3 1.0---- 9.6------------
1977-09-20 7.9 9.1 6.1- 97.0- 8.0 1.7---- 12.9------------
1977-09-19 7.5 10.1 5.3- 89.3- 8.0 2.0---- 3.1------------
1977-09-18 3.5 6.8 0.8- 93.3- 7.7 1.3---- 17.8------------
1977-09-17 5.7 10.1 3.4- 90.3- 6.3 0.3---- 2.0------------
1977-09-16 7.8 12.1 5.4- 78.5- 6.0 5.3---- 0.8------------
1977-09-15 11.2 12.5 9.5- 69.5- 7.0 2.0---- 4.1------------
1977-09-14 6.4 14.9 0.0- 70.8- 1.7 1.7---- 0.0------------
1977-09-13 9.3 15.0 5.0- 81.8- 5.7 2.3---- 0.1------------
1977-09-12 15.4 22.0 11.6- 78.8- 3.0 2.7---- 1.1------------
1977-09-11 9.5 12.3 7.1- 82.3- 8.0 1.3---- 3.7------------
1977-09-10 9.3 13.4 8.2- 77.3- 6.7 2.3---- 0.0------------
1977-09-09 12.3 17.0 8.6- 94.0- 7.3 2.7---- 23.2------------
1977-09-08 15.5 21.2 12.0- 87.5- 6.3 1.0---- 2.0------------
1977-09-07 16.8 25.5 11.2- 82.0- 4.0 0.0---- 0.0------------
1977-09-06 15.6 21.6 12.2- 86.5- 3.0 0.7---- 0.0------------
1977-09-05 15.3 21.3 10.7- 84.5- 3.7 2.3---- 0.0------------
1977-09-04 15.4 25.6 9.2- 75.8- 2.0 0.7---- 0.0------------
1977-09-03 15.3 25.3 8.9- 73.5- 0.3 1.7---- 0.0------------
1977-09-02 17.4 24.8 13.2- 73.5- 2.7 0.7---- 0.0------------
1977-09-01 17.7 25.1 12.9- 77.0- 2.7 0.3---- 0.0------------
1977-08-31 17.1 26.5 10.7- 75.0- 0.3 1.0---- 0.0------------
1977-08-30 15.1 25.1 7.4- 76.3- 0.0 0.7---- 0.0------------
1977-08-29 15.1 21.3 12.7- 83.5- 3.0 1.0---- 0.0------------
1977-08-28 16.8 24.2 12.7- 79.8- 6.3 1.7---- 4.5------------
1977-08-27 14.9 23.2 7.3- 72.8- 2.7 1.0---- 0.0------------
1977-08-26 11.5 21.7 4.4- 78.3- 0.0 1.0---- 0.0------------
1977-08-25 11.3 17.5 9.3- 82.0- 3.0 0.3---- 0.0------------
1977-08-24 11.6 14.7 10.2- 86.0- 7.0 2.7---- 0.0------------
1977-08-23 12.1 17.1 10.8- 86.0- 7.0 2.0---- 1.5------------
1977-08-22 17.0 22.6 14.3- 78.3- 4.3 3.0---- 0.0------------
1977-08-21 15.9 21.0 11.1- 83.3- 7.0 1.0---- 4.0------------
1977-08-20 14.3 18.5 11.1- 77.8- 5.3 1.3---- 2.6------------
1977-08-19 15.7 21.0 13.3- 92.0- 7.0 0.3---- 7.2------------
1977-08-18 13.8 22.2 6.4- 77.3- 5.3 1.3---- 0.0------------
1977-08-17 12.8 18.0 9.6- 79.0- 3.3 2.3---- 0.0------------
1977-08-16 12.1 15.5 11.3- 89.0- 8.0 2.3---- 0.1------------
1977-08-15 15.1 17.7 13.7- 82.3- 7.3 3.0---- 0.1------------
1977-08-14 15.5 21.1 12.5- 89.5- 7.3 0.3---- 0.0------------
1977-08-13 17.0 24.0 14.0- 86.5- 6.3 0.7---- 0.9------------
1977-08-12 17.5 23.0 14.7- 82.3- 7.0 1.7---- 0.0------------
1952.8 ms

 

Źródłem pochodzenia danych jest Instytut Meteorologii i Gospodarki Wodnej – Państwowy Instytut Badawczy. Dane Instytutu Meteorologii i Gospodarki Wodnej – Państwowego Instytutu Badawczego zostały przetworzone.

Dane źródłowe można odnaleźć na stronie https://dane.imgw.pl